Orbital elements of COSMOS 397 DEB
| Launched | 24 February 1971 |
| Flight ended | – |
| Launch site | Tyuratam Missile and Space Center, Kazakhstan (Also known as Baikonur Cosmodrome) |
| Owner | Commonwealth of Independent States (former USSR) |
| NORAD ID | 5018 |
| Date fetched |
Epoch osculation |
Inc. [°] |
Ecc. | RA asc node [hr] |
Arg Peri. [°] |
Mean anom [°] |
Mean motion [rev/day] |
Abs. mag |
| Date fetched |
Epoch osculation |
Inc. [°] |
Ecc. | RA asc node [hr] |
Arg Peri. [°] |
Mean anom [°] |
Mean motion [rev/day] |
Abs. mag |
| 2026 May 05 17:57 | 2026 May 05 07:12:37 | 65.7124 | 0.10055 | 14.2765 | 226.1368 | 125.2219 | 12.80543 | – |
| 2026 May 04 17:57 | 2026 Apr 30 14:44:47 | 65.7125 | 0.10056 | 14.9468 | 228.0198 | 125.2219 | 12.80543 | – |
| 2026 May 03 17:57 | 2026 Apr 30 14:44:47 | 65.7125 | 0.10056 | 14.9468 | 228.0198 | 125.2219 | 12.80543 | – |
| 2026 May 02 17:57 | 2026 Apr 30 14:44:47 | 65.7125 | 0.10056 | 14.9468 | 228.0198 | 125.2219 | 12.80543 | – |
| 2026 May 01 17:56 | 2026 Apr 30 14:44:47 | 65.7125 | 0.10056 | 14.9468 | 228.0198 | 125.2219 | 12.80543 | – |
| 2026 Apr 30 17:56 | 2026 Apr 30 14:44:47 | 65.7125 | 0.10056 | 14.9468 | 228.0198 | 125.2219 | 12.80543 | – |
| 2026 Apr 29 17:57 | 2026 Apr 24 12:32:37 | 65.7124 | 0.10058 | 15.8182 | 230.4687 | 125.2219 | 12.80543 | – |
| 2026 Apr 28 17:56 | 2026 Apr 24 12:32:37 | 65.7124 | 0.10058 | 15.8182 | 230.4687 | 125.2219 | 12.80543 | – |
| 2026 Apr 27 17:58 | 2026 Apr 24 12:32:37 | 65.7124 | 0.10058 | 15.8182 | 230.4687 | 125.2219 | 12.80543 | – |
| 2026 Apr 26 17:58 | 2026 Apr 24 12:32:37 | 65.7124 | 0.10058 | 15.8182 | 230.4687 | 125.2219 | 12.80543 | – |
| 2026 Apr 25 17:58 | 2026 Apr 24 12:32:37 | 65.7124 | 0.10058 | 15.8182 | 230.4687 | 125.2219 | 12.80543 | – |
| 2026 Apr 24 17:59 | 2026 Apr 24 12:32:37 | 65.7124 | 0.10058 | 15.8182 | 230.4687 | 125.2219 | 12.80543 | – |
| 2026 Apr 23 17:57 | 2026 Apr 18 15:57:48 | 65.7118 | 0.10060 | 16.6562 | 232.8232 | 125.2219 | 12.80543 | – |
| 2026 Apr 22 17:57 | 2026 Apr 18 15:57:48 | 65.7118 | 0.10060 | 16.6562 | 232.8232 | 125.2219 | 12.80543 | – |
| 2026 Apr 21 17:57 | 2026 Apr 18 15:57:48 | 65.7118 | 0.10060 | 16.6562 | 232.8232 | 125.2219 | 12.80543 | – |
| 2026 Apr 20 17:57 | 2026 Apr 18 15:57:48 | 65.7118 | 0.10060 | 16.6562 | 232.8232 | 125.2219 | 12.80543 | – |
| 2026 Apr 19 17:58 | 2026 Apr 18 15:57:48 | 65.7118 | 0.10060 | 16.6562 | 232.8232 | 125.2219 | 12.80543 | – |
| 2026 Apr 18 17:56 | 2026 Apr 12 19:23:00 | 65.7115 | 0.10062 | 17.4942 | 235.1765 | 125.2219 | 12.80543 | – |
| 2026 Apr 16 17:57 | 2026 Apr 12 19:23:00 | 65.7115 | 0.10062 | 17.4942 | 235.1765 | 125.2219 | 12.80543 | – |
| 2026 Apr 14 17:57 | 2026 Apr 12 19:23:00 | 65.7115 | 0.10062 | 17.4942 | 235.1765 | 125.2219 | 12.80543 | – |
| 2026 Apr 13 17:57 | 2026 Apr 12 19:23:00 | 65.7115 | 0.10062 | 17.4942 | 235.1765 | 125.2219 | 12.80543 | – |
| 2026 Apr 12 17:57 | 2026 Apr 07 21:17:46 | 65.7112 | 0.10064 | 18.1982 | 237.1523 | 125.2219 | 12.80543 | – |
| 2026 Apr 11 17:57 | 2026 Apr 07 21:17:46 | 65.7112 | 0.10064 | 18.1982 | 237.1523 | 125.2219 | 12.80543 | – |
| 2026 Apr 10 17:58 | 2026 Apr 07 21:17:46 | 65.7112 | 0.10064 | 18.1982 | 237.1523 | 125.2219 | 12.80543 | – |
| 2026 Apr 09 18:01 | 2026 Apr 07 21:17:46 | 65.7112 | 0.10064 | 18.1982 | 237.1523 | 125.2219 | 12.80543 | – |
| 2026 Apr 08 17:57 | 2026 Apr 07 21:17:46 | 65.7112 | 0.10064 | 18.1982 | 237.1523 | 125.2219 | 12.80543 | – |